Time;durP1;ratioP1;P1;durP2;ratioP2;P2;SDS_P1;SDS_P2;PMS_P1;PMS_P2;Temp;Humidity;BMP_temperature;BMP_pressure;BME280_temperature;BME280_humidity;BME280_pressure;Samples;Min_cycle;Max_cycle;Signal;HPM_P1;HPM_P2
2022/01/16 00:04:27;;;;;;;39.25;19.33;;;;;;;-2.61;91.85;98122.69;5009941;28;20053;-61
2022/01/16 00:06:53;;;;;;;43.33;20.75;;;;;;;-2.75;92.32;98134.66;5020735;28;20765;-62
2022/01/16 00:09:20;;;;;;;47.25;21.27;;;;;;;-2.67;92.95;98135.69;5019898;28;20026;-62
2022/01/16 00:11:46;;;;;;;43.45;19.77;;;;;;;-2.82;93.09;98133.56;5019616;28;20034;-62
2022/01/16 00:14:13;;;;;;;48.90;21.65;;;;;;;-2.82;93.25;98138.84;5019526;28;20033;-62
2022/01/16 00:16:40;;;;;;;44.03;21.27;;;;;;;-2.84;93.56;98135.50;5017882;28;20037;-61
2022/01/16 00:19:07;;;;;;;46.65;23.40;;;;;;;-2.70;93.96;98143.97;5018457;28;20546;-62
2022/01/16 00:21:39;;;;;;;46.50;19.95;;;;;;;-2.69;93.42;98145.63;5019044;28;20060;-61
2022/01/16 00:24:06;;;;;;;49.08;21.85;;;;;;;-2.59;92.83;98134.97;5020639;28;20033;-61
2022/01/16 00:26:35;;;;;;;53.83;22.95;;;;;;;-2.68;92.54;98124.28;5019803;28;20037;-61
2022/01/16 00:29:07;;;;;;;42.35;20.73;;;;;;;-2.67;93.12;98117.13;5020940;28;20041;-62
2022/01/16 00:31:35;;;;;;;;;;;;;;;-2.63;92.40;98131.78;5024302;28;20045;-62
2022/01/16 00:34:01;;;;;;;43.88;19.30;;;;;;;-2.71;92.36;98119.25;5023582;28;19925;-62
2022/01/16 00:36:28;;;;;;;55.70;21.35;;;;;;;-2.78;92.04;98118.19;5022323;28;20041;-61
2022/01/16 00:38:56;;;;;;;40.65;19.30;;;;;;;-2.78;91.76;98126.13;5038398;28;20045;-62
2022/01/16 00:41:24;;;;;;;38.97;18.73;;;;;;;-2.77;92.35;98114.53;5037663;28;20056;-62
2022/01/16 00:43:52;;;;;;;40.63;18.90;;;;;;;-2.94;92.07;98129.44;5022949;28;20041;-62
2022/01/16 00:46:19;;;;;;;42.63;20.40;;;;;;;-2.86;93.23;98132.19;5022865;28;20045;-62
2022/01/16 00:48:46;;;;;;;60.28;21.95;;;;;;;-2.99;93.00;98129.03;5022933;28;20041;-61
2022/01/16 00:51:14;;;;;;;50.05;21.48;;;;;;;-3.07;93.16;98133.25;5022844;28;20034;-62
2022/01/16 00:53:43;;;;;;;53.63;21.38;;;;;;;-3.06;93.61;98132.25;5017048;28;20104;-62
2022/01/16 00:56:11;;;;;;;64.25;22.17;;;;;;;-2.99;93.30;98158.19;5023846;28;20041;-61
2022/01/16 00:58:38;;;;;;;40.05;19.10;;;;;;;-3.05;93.32;98144.53;5009958;28;20045;-62
2022/01/16 01:01:05;;;;;;;40.92;18.80;;;;;;;-2.89;93.38;98169.56;5023991;28;20045;-62
2022/01/16 01:03:32;;;;;;;48.45;20.80;;;;;;;-2.99;92.74;98164.31;5029460;28;20631;-62
2022/01/16 01:05:59;;;;;;;36.67;19.38;;;;;;;-2.88;92.82;98176.53;5026558;28;20048;-61
2022/01/16 01:08:28;;;;;;;28.58;17.65;;;;;;;-2.79;91.99;98166.88;5027272;28;20037;-61
2022/01/16 01:10:55;;;;;;;42.78;20.02;;;;;;;-2.99;91.77;98155.53;5026003;28;20436;-62
2022/01/16 01:13:30;;;;;;;35.17;18.27;;;;;;;-3.16;92.24;98157.97;5026502;28;20064;-61
2022/01/16 01:16:04;;;;;;;37.55;20.00;;;;;;;-3.20;92.83;98170.66;5025748;28;20412;-62
2022/01/16 01:18:33;;;;;;;38.67;20.60;;;;;;;-3.23;93.44;98152.41;5026863;28;20584;-62
2022/01/16 01:21:02;;;;;;;37.50;20.17;;;;;;;-3.18;93.91;98114.88;5026560;28;20034;-62
2022/01/16 01:23:30;;;;;;;40.60;21.17;;;;;;;-3.05;94.07;98059.75;5025581;28;20112;-62
2022/01/16 01:25:56;;;;;;;41.67;20.83;;;;;;;-3.01;93.11;98053.19;5026042;28;20489;-62
2022/01/16 01:28:23;;;;;;;51.78;20.83;;;;;;;-3.14;92.65;98056.16;5027043;28;20045;-61
2022/01/16 01:30:50;;;;;;;49.25;20.38;;;;;;;-3.14;93.27;98072.06;5025355;28;20037;-61
2022/01/16 01:33:19;;;;;;;54.17;22.17;;;;;;;-3.09;93.92;98063.69;5026916;28;20037;-61
2022/01/16 01:35:46;;;;;;;51.03;22.77;;;;;;;-3.14;93.76;98077.34;5024221;28;20077;-61
2022/01/16 01:38:17;;;;;;;48.63;21.85;;;;;;;-3.04;94.43;98098.50;5026325;28;20041;-62
2022/01/16 01:40:47;;;;;;;55.53;21.77;;;;;;;-2.99;93.92;98119.25;5026196;28;20111;-62
2022/01/16 01:51:36;;;;;;;53.13;24.45;;;;;;;-2.93;95.11;98147.84;5025849;28;20041;-62
2022/01/16 01:54:05;;;;;;;45.25;21.88;;;;;;;-2.79;94.63;98170.38;5026143;28;20034;-62
2022/01/16 01:56:32;;;;;;;51.53;21.73;;;;;;;-2.72;93.77;98160.03;5025444;28;20045;-62
2022/01/16 01:59:00;;;;;;;46.10;22.10;;;;;;;-3.08;93.29;98144.81;5024420;28;20045;-62
2022/01/16 02:01:28;;;;;;;33.58;17.65;;;;;;;-3.05;94.13;98167.53;5023532;28;20045;-61
2022/01/16 02:03:55;;;;;;;42.30;20.67;;;;;;;-3.28;93.97;98173.19;5024327;28;20049;-62
2022/01/16 02:06:30;;;;;;;46.00;20.50;;;;;;;-3.25;94.23;98177.38;5025347;28;20037;-61
2022/01/16 02:09:03;;;;;;;61.92;20.35;;;;;;;-3.20;94.27;98181.28;5025158;28;20425;-62
2022/01/16 02:11:32;;;;;;;56.78;19.83;;;;;;;-3.36;94.22;98183.66;5026020;28;20045;-61
2022/01/16 02:28:04;;;;;;;46.42;19.52;;;;;;;-3.13;95.25;98161.16;5024329;28;20044;-61
2022/01/16 02:35:52;;;;;;;44.13;20.17;;;;;;;-3.25;94.40;98146.41;5025460;28;20056;-62
2022/01/16 02:38:20;;;;;;;43.25;19.05;;;;;;;-3.24;94.79;98164.00;5024422;28;20531;-62
2022/01/16 02:40:53;;;;;;;46.67;19.77;;;;;;;-3.28;94.40;98150.19;5023304;28;20041;-61
2022/01/16 02:43:29;;;;;;;34.42;17.67;;;;;;;-3.28;94.63;98144.88;5025680;28;20409;-62
2022/01/16 02:46:40;;;;;;;45.53;18.65;;;;;;;-3.37;94.32;98132.50;5021848;28;20053;-62
2022/01/16 02:48:50;;;;;;;35.95;17.08;;;;;;;-3.32;93.98;98129.44;5023269;28;20054;-62
2022/01/16 02:51:20;;;;;;;40.75;17.63;;;;;;;-3.23;94.37;98127.72;5016598;28;20064;-63
2022/01/16 02:53:47;;;;;;;37.40;17.23;;;;;;;-3.35;94.22;98116.47;5021347;28;20050;-62
2022/01/16 02:56:15;;;;;;;45.20;18.63;;;;;;;-3.47;94.30;98115.81;5024459;28;20041;-62
2022/01/16 02:58:42;;;;;;;34.97;16.75;;;;;;;-3.47;94.30;98107.88;5022850;28;20049;-62
2022/01/16 03:01:10;;;;;;;36.78;16.80;;;;;;;-3.58;94.60;98095.66;5024883;28;20604;-63
2022/01/16 03:03:37;;;;;;;31.92;14.90;;;;;;;-3.69;94.32;98101.94;5023371;28;20056;-62
2022/01/16 03:06:03;;;;;;;42.17;17.30;;;;;;;-3.83;94.63;98114.63;5024813;28;20045;-62
2022/01/16 03:08:30;;;;;;;37.33;18.02;;;;;;;-3.76;94.82;98103.47;5021369;28;20049;-62
2022/01/16 03:11:14;;;;;;;37.42;16.90;;;;;;;-3.43;95.98;98106.63;5025795;28;20043;-61
2022/01/16 03:13:46;;;;;;;44.67;18.70;;;;;;;-3.44;94.30;98104.91;5023560;28;20053;-62
2022/01/16 03:16:14;;;;;;;43.05;18.60;;;;;;;-3.28;94.48;98104.34;5024324;28;20055;-61
2022/01/16 03:24:12;;;;;;;38.00;16.95;;;;;;;-3.24;93.50;98100.41;5019060;28;20054;-62
2022/01/16 03:26:39;;;;;;;39.80;17.95;;;;;;;-3.35;93.06;98097.94;5023938;28;20041;-62
2022/01/16 03:29:06;;;;;;;39.92;18.27;;;;;;;-3.35;93.07;98101.44;5025035;28;20038;-62
2022/01/16 03:31:32;;;;;;;35.97;18.00;;;;;;;-3.37;93.18;98090.13;5039431;28;20420;-62
2022/01/16 03:33:59;;;;;;;37.60;19.23;;;;;;;-3.42;92.96;98093.22;5024139;28;20041;-62
2022/01/16 03:36:26;;;;;;;35.22;18.05;;;;;;;-3.43;93.11;98094.19;5022777;28;20048;-62
2022/01/16 03:38:52;;;;;;;33.67;19.40;;;;;;;-3.41;94.04;98096.69;5023114;28;20053;-62
2022/01/16 03:41:19;;;;;;;46.15;20.98;;;;;;;-3.46;92.91;98102.41;5038162;28;20029;-62
2022/01/16 03:43:46;;;;;;;36.47;18.23;;;;;;;-3.34;93.46;98096.94;5018305;28;20049;-61
2022/01/16 03:46:13;;;;;;;37.63;19.23;;;;;;;-3.31;93.15;98105.44;5021409;28;20033;-62
2022/01/16 03:48:39;;;;;;;38.90;18.88;;;;;;;-3.19;93.39;98099.97;5023833;28;20048;-62
2022/01/16 03:51:06;;;;;;;35.30;19.08;;;;;;;-3.25;91.68;98111.16;5022802;28;20044;-62
2022/01/16 03:53:32;;;;;;;35.85;17.65;;;;;;;-3.21;91.52;98108.06;5024244;28;20056;-62
2022/01/16 03:55:59;;;;;;;36.67;17.55;;;;;;;-3.22;91.16;98118.78;5023132;28;20033;-62
2022/01/16 03:58:26;;;;;;;30.83;15.82;;;;;;;-3.17;90.48;98116.56;5022884;28;20034;-61
2022/01/16 04:00:52;;;;;;;30.17;16.55;;;;;;;-3.19;90.36;98129.09;5023409;28;20041;-61
2022/01/16 04:03:19;;;;;;;27.83;16.38;;;;;;;-3.25;90.60;98122.56;5023467;28;20041;-62
2022/01/16 04:05:45;;;;;;;26.35;16.95;;;;;;;-3.15;91.17;98130.47;5023080;28;20037;-62
2022/01/16 04:08:12;;;;;;;29.05;16.70;;;;;;;-3.34;90.36;98129.56;5023832;28;20053;-61
2022/01/16 04:10:38;;;;;;;29.90;15.82;;;;;;;-3.08;89.09;98126.28;5036955;28;20045;-62
2022/01/16 04:13:07;;;;;;;27.10;14.27;;;;;;;-3.05;87.86;98115.41;5024055;28;20504;-61
2022/01/16 04:15:34;;;;;;;25.45;14.18;;;;;;;-3.14;87.76;98113.59;5023510;28;20041;-61
2022/01/16 04:18:05;;;;;;;27.38;14.45;;;;;;;-3.27;90.03;98117.41;5021207;28;20037;-61
2022/01/16 04:20:33;;;;;;;26.35;14.38;;;;;;;-3.41;89.55;98109.94;5023825;28;20048;-61
2022/01/16 04:23:00;;;;;;;28.30;16.05;;;;;;;-3.42;90.86;98110.94;5023885;28;20049;-62
2022/01/16 04:25:26;;;;;;;30.65;16.20;;;;;;;-3.31;91.07;98121.31;5021594;28;21405;-62
2022/01/16 04:27:53;;;;;;;31.70;16.88;;;;;;;-3.17;90.91;98112.06;5023839;28;20047;-61
2022/01/16 04:30:20;;;;;;;28.92;16.20;;;;;;;-3.36;90.69;98114.81;5022117;28;20041;-62
2022/01/16 04:32:47;;;;;;;33.20;16.70;;;;;;;-3.45;91.17;98109.41;5028291;28;20291;-61
2022/01/16 04:35:13;;;;;;;30.85;17.35;;;;;;;-3.38;91.07;98101.72;5026062;28;20053;-62
2022/01/16 04:37:40;;;;;;;31.10;16.13;;;;;;;-3.35;90.27;98105.88;5025730;28;20528;-61
2022/01/16 04:40:26;;;;;;;25.27;15.10;;;;;;;-3.43;90.96;98103.97;5029094;28;20061;-61
2022/01/16 04:45:38;;;;;;;29.75;15.65;;;;;;;-3.57;89.94;98114.00;5025927;28;20037;-61
2022/01/16 04:48:05;;;;;;;25.02;14.85;;;;;;;-3.66;90.00;98114.88;5027413;28;20048;-62
2022/01/16 04:50:31;;;;;;;26.48;15.07;;;;;;;-3.55;90.48;98117.38;5027393;28;20426;-62
2022/01/16 04:52:58;;;;;;;29.70;16.38;;;;;;;-3.28;90.80;98128.16;5026856;28;20045;-63
2022/01/16 04:55:25;;;;;;;29.90;15.88;;;;;;;-3.59;90.41;98121.28;5027553;28;20973;-62
2022/01/16 04:57:52;;;;;;;27.15;15.25;;;;;;;-3.45;91.03;98121.78;5024942;28;20072;-61
2022/01/16 05:00:18;;;;;;;32.65;17.00;;;;;;;-3.42;90.47;98117.03;5027552;28;20064;-62
2022/01/16 05:02:45;;;;;;;36.13;17.63;;;;;;;-3.71;90.72;98114.47;5025653;28;20037;-61
2022/01/16 05:05:12;;;;;;;32.63;18.00;;;;;;;-3.74;90.99;98112.94;5028663;28;20607;-61
2022/01/16 05:07:39;;;;;;;33.63;18.20;;;;;;;-3.86;91.56;98109.63;5025637;28;20042;-61
2022/01/16 05:10:06;;;;;;;31.80;17.35;;;;;;;-3.87;91.85;98109.75;5028527;28;20034;-61
2022/01/16 05:12:36;;;;;;;44.17;17.02;;;;;;;-3.74;90.92;98102.38;5026009;28;20045;-61
2022/01/16 05:17:49;;;;;;;29.02;14.93;;;;;;;-3.59;89.73;98101.91;5025159;28;20038;-61
2022/01/16 05:20:16;;;;;;;25.17;14.32;;;;;;;-3.54;89.56;98108.44;5025951;28;20413;-62
2022/01/16 05:22:43;;;;;;;28.98;15.52;;;;;;;-3.54;90.01;98097.03;5026590;28;20041;-61
2022/01/16 05:25:12;;;;;;;31.05;15.98;;;;;;;-3.86;90.53;98100.84;5025238;28;20041;-62
2022/01/16 05:27:39;;;;;;;25.17;14.32;;;;;;;-3.89;91.47;98101.13;5024262;28;20045;-62
2022/01/16 05:30:06;;;;;;;36.22;16.02;;;;;;;-4.05;92.39;98098.06;5026136;28;20121;-61
2022/01/16 05:32:34;;;;;;;39.88;19.25;;;;;;;-4.12;92.76;98099.63;5025892;28;20417;-61
2022/01/16 05:35:06;;;;;;;39.17;19.30;;;;;;;-4.19;92.81;98099.34;5025511;28;20037;-62
2022/01/16 05:37:32;;;;;;;37.65;18.23;;;;;;;-4.18;92.74;98102.81;5023857;28;20041;-65
2022/01/16 05:39:59;;;;;;;38.70;18.90;;;;;;;-4.18;93.36;98123.97;5026174;28;20423;-64
2022/01/16 05:42:26;;;;;;;36.97;19.00;;;;;;;-4.20;92.81;98113.53;5025293;28;20112;-65
2022/01/16 05:44:52;;;;;;;35.20;17.52;;;;;;;-4.20;93.47;98113.53;5024258;28;20095;-64
2022/01/16 05:47:19;;;;;;;44.33;18.00;;;;;;;-4.12;92.95;98122.59;5025014;28;20041;-65
2022/01/16 05:49:46;;;;;;;31.02;16.52;;;;;;;-3.76;92.99;98129.94;5026428;28;20049;-65
2022/01/16 05:52:32;;;;;;;33.53;17.52;;;;;;;-3.84;91.55;98135.97;5024340;28;20084;-64
2022/01/16 05:54:59;;;;;;;25.58;14.98;;;;;;;-3.89;92.29;98139.00;5008641;28;20045;-65
2022/01/16 05:57:25;;;;;;;29.00;15.13;;;;;;;-3.69;92.47;98136.34;5024712;28;20049;-64
2022/01/16 05:59:52;;;;;;;32.47;17.20;;;;;;;-3.72;90.83;98116.28;5021044;28;20041;-65
2022/01/16 06:02:19;;;;;;;35.90;17.13;;;;;;;-3.90;91.97;98121.47;5023079;28;20079;-65
2022/01/16 06:04:45;;;;;;;35.75;17.90;;;;;;;-4.03;92.22;98124.38;5026043;28;20052;-65
2022/01/16 06:07:12;;;;;;;28.80;17.25;;;;;;;-4.19;92.37;98127.59;5023838;28;20041;-65
2022/01/16 06:09:39;;;;;;;32.30;16.85;;;;;;;-4.16;92.49;98139.72;5025827;28;20448;-65
2022/01/16 06:12:06;;;;;;;29.88;15.32;;;;;;;-4.04;92.46;98149.19;5024471;28;20057;-64
2022/01/16 06:14:33;;;;;;;29.88;16.23;;;;;;;-3.93;91.33;98138.47;5023927;28;20049;-65
2022/01/16 06:17:00;;;;;;;24.95;14.52;;;;;;;-3.90;90.05;98136.50;5023964;28;20041;-65
2022/01/16 06:19:26;;;;;;;27.25;15.05;;;;;;;-4.25;91.53;98133.44;5025023;28;20436;-65
2022/01/16 06:21:53;;;;;;;30.13;16.45;;;;;;;-4.55;92.26;98132.56;5025185;28;20799;-65
2022/01/16 06:24:19;;;;;;;28.17;15.50;;;;;;;-4.53;92.48;98134.13;5025381;28;20588;-65
2022/01/16 06:26:48;;;;;;;25.25;15.32;;;;;;;-4.25;91.17;98144.84;5025037;28;20048;-65
2022/01/16 06:29:16;;;;;;;22.40;14.18;;;;;;;-4.18;90.58;98143.34;5025077;28;20047;-65
2022/01/16 06:31:42;;;;;;;24.75;14.93;;;;;;;-4.21;89.89;98150.69;5025016;28;20048;-65
2022/01/16 06:34:09;;;;;;;21.77;12.52;;;;;;;-4.25;89.73;98147.50;5023392;28;20045;-64
2022/01/16 06:36:36;;;;;;;24.65;14.90;;;;;;;-4.50;90.24;98148.88;5024116;28;20053;-65
2022/01/16 06:39:05;;;;;;;23.05;14.20;;;;;;;-4.52;90.97;98153.44;5023811;28;20044;-65
2022/01/16 06:41:33;;;;;;;26.13;14.40;;;;;;;-4.41;91.51;98153.34;5024054;28;20509;-65
2022/01/16 06:44:00;;;;;;;28.38;15.48;;;;;;;-4.28;90.66;98153.06;5024683;28;20037;-65
2022/01/16 06:46:29;;;;;;;28.23;15.55;;;;;;;-4.24;90.66;98157.09;5023154;28;20113;-65
2022/01/16 06:48:56;;;;;;;24.30;13.95;;;;;;;-4.32;89.33;98165.72;5024127;28;20057;-65
2022/01/16 06:51:24;;;;;;;25.42;14.40;;;;;;;-4.23;89.79;98171.16;5024845;28;20037;-64
2022/01/16 06:53:57;;;;;;;20.98;12.98;;;;;;;-4.22;88.64;98175.47;5040008;28;20045;-65
2022/01/16 06:56:24;;;;;;;19.27;11.93;;;;;;;-4.33;88.32;98182.56;5023647;28;20470;-64
2022/01/16 06:58:51;;;;;;;24.50;13.98;;;;;;;-4.59;90.07;98191.00;5024857;28;20047;-65
2022/01/16 07:01:37;;;;;;;19.98;13.43;;;;;;;-4.71;90.54;98186.78;5025200;28;20131;-65
2022/01/16 07:04:04;;;;;;;23.38;13.23;;;;;;;-4.75;90.51;98183.56;5024995;28;20052;-65
2022/01/16 07:06:31;;;;;;;20.40;12.23;;;;;;;-4.80;90.75;98198.16;5020607;28;21747;-65
2022/01/16 07:08:57;;;;;;;25.25;13.90;;;;;;;-4.70;90.60;98197.22;5023050;28;20042;-65
2022/01/16 07:11:24;;;;;;;20.73;12.77;;;;;;;-4.73;90.10;98204.56;5020943;28;20100;-64
2022/01/16 07:13:50;;;;;;;23.60;13.73;;;;;;;-4.87;90.33;98198.69;5020605;28;20452;-65
2022/01/16 07:16:17;;;;;;;22.88;13.77;;;;;;;-5.12;89.98;98202.59;5022112;28;20049;-65
2022/01/16 07:18:43;;;;;;;21.83;12.98;;;;;;;-5.14;90.53;98205.38;5021239;28;20132;-64
2022/01/16 07:21:13;;;;;;;21.33;13.93;;;;;;;-5.11;90.43;98197.19;5022247;28;20045;-64
2022/01/16 07:23:49;;;;;;;20.92;12.98;;;;;;;-5.06;90.13;98186.22;5021655;28;20056;-64
2022/01/16 07:26:17;;;;;;;24.55;14.07;;;;;;;-4.87;90.67;98198.69;5019732;28;20449;-65
2022/01/16 07:28:44;;;;;;;24.20;14.38;;;;;;;-4.89;89.23;98213.00;5021415;28;20072;-64
2022/01/16 07:31:11;;;;;;;22.38;13.27;;;;;;;-4.78;90.28;98207.63;5022407;28;20033;-67
2022/01/16 07:33:38;;;;;;;23.30;14.20;;;;;;;-4.85;89.60;98212.59;5019771;28;20042;-65
2022/01/16 07:36:05;;;;;;;22.17;12.10;;;;;;;-5.07;88.75;98216.25;5019828;28;20041;-65
2022/01/16 07:38:32;;;;;;;25.80;14.40;;;;;;;-4.89;88.91;98203.28;5021585;28;20536;-65
2022/01/16 07:40:58;;;;;;;21.50;13.52;;;;;;;-4.81;89.10;98213.16;5015178;28;20049;-63
2022/01/16 07:43:25;;;;;;;26.35;14.00;;;;;;;-4.68;89.58;98231.44;5021466;28;20045;-64
2022/01/16 07:45:52;;;;;;;23.20;13.18;;;;;;;-4.65;89.20;98235.63;5022283;28;20038;-64
2022/01/16 07:48:18;;;;;;;24.48;15.95;;;;;;;-4.67;89.36;98242.84;5022062;28;20116;-64
2022/01/16 07:50:45;;;;;;;25.65;15.80;;;;;;;-4.60;89.15;98265.13;5023609;28;20567;-63
2022/01/16 07:53:12;;;;;;;24.40;16.02;;;;;;;-4.50;89.10;98268.66;5021846;28;20041;-64
2022/01/16 07:55:38;;;;;;;29.00;16.40;;;;;;;-4.40;89.32;98279.25;5020435;28;20045;-64
2022/01/16 07:58:05;;;;;;;25.13;14.55;;;;;;;-4.31;89.09;98285.56;5019449;28;20041;-64
2022/01/16 08:00:33;;;;;;;29.27;15.00;;;;;;;-4.18;88.30;98285.31;5020319;28;20180;-64
2022/01/16 08:03:00;;;;;;;24.65;13.60;;;;;;;-4.59;88.80;98286.16;5021302;28;20124;-63
2022/01/16 08:05:27;;;;;;;24.55;13.90;;;;;;;-4.71;89.34;98288.03;5013338;28;20059;-65
2022/01/16 08:07:54;;;;;;;24.05;13.48;;;;;;;-4.63;89.72;98290.03;5020930;28;20042;-64
2022/01/16 08:10:20;;;;;;;21.23;12.73;;;;;;;-4.36;89.78;98287.75;5021172;28;20053;-64
2022/01/16 08:12:47;;;;;;;26.05;14.70;;;;;;;-4.10;88.08;98281.97;5020547;28;20052;-66
2022/01/16 08:15:14;;;;;;;23.60;14.25;;;;;;;-3.68;86.63;98276.47;5021975;28;20041;-66
2022/01/16 08:17:40;;;;;;;22.98;12.73;;;;;;;-3.56;86.30;98274.56;5020951;28;20044;-66
2022/01/16 08:20:08;;;;;;;20.25;12.43;;;;;;;-3.65;85.90;98270.06;5020221;28;20041;-66
2022/01/16 08:22:36;;;;;;;21.67;13.50;;;;;;;-3.62;86.63;98280.38;5019642;28;20678;-66
2022/01/16 08:25:04;;;;;;;19.95;12.70;;;;;;;-3.49;86.53;98280.13;5020629;28;20068;-66
2022/01/16 08:27:31;;;;;;;21.40;12.30;;;;;;;-3.61;86.99;98282.06;5020731;28;20517;-66
2022/01/16 08:30:05;;;;;;;22.42;14.30;;;;;;;-3.71;87.41;98281.22;5021452;28;20041;-66
2022/01/16 08:32:32;;;;;;;24.90;13.55;;;;;;;-3.71;88.14;98270.63;5019933;28;20033;-66
2022/01/16 08:34:59;;;;;;;25.20;13.65;;;;;;;-3.67;88.03;98279.97;5022147;28;20133;-66
2022/01/16 08:37:26;;;;;;;27.92;15.43;;;;;;;-3.73;87.86;98286.66;5022862;28;20165;-66
2022/01/16 08:39:54;;;;;;;22.55;13.18;;;;;;;-3.64;88.09;98287.66;5023521;28;20045;-66
2022/01/16 08:42:20;;;;;;;21.92;13.07;;;;;;;-3.43;86.93;98290.16;5021880;28;20057;-66
2022/01/16 08:44:49;;;;;;;21.98;13.25;;;;;;;-3.22;86.55;98288.31;5022889;28;20041;-66
2022/01/16 08:47:17;;;;;;;22.83;13.95;;;;;;;-2.96;86.50;98295.69;5023384;28;20056;-66
2022/01/16 08:49:43;;;;;;;22.98;14.00;;;;;;;-2.70;85.92;98295.91;5023440;28;20063;-65
2022/01/16 08:52:10;;;;;;;21.35;12.95;;;;;;;-2.77;84.75;98300.94;5022873;28;20048;-65
2022/01/16 08:54:37;;;;;;;23.17;12.07;;;;;;;-2.64;85.10;98294.50;5037919;28;20061;-65
2022/01/16 08:57:04;;;;;;;26.30;14.77;;;;;;;-2.65;84.31;98303.44;5020178;28;20044;-66
2022/01/16 08:59:31;;;;;;;22.05;12.43;;;;;;;-2.81;86.44;98310.16;5023288;28;20655;-66
2022/01/16 09:01:57;;;;;;;27.25;15.38;;;;;;;-2.52;88.80;98308.41;5022953;28;20030;-66
2022/01/16 09:04:24;;;;;;;36.03;18.30;;;;;;;-2.37;87.26;98303.47;5021446;28;20065;-66
2022/01/16 09:06:51;;;;;;;31.85;15.75;;;;;;;-2.18;87.66;98309.69;5022293;28;20049;-66
2022/01/16 09:09:17;;;;;;;36.97;16.75;;;;;;;-2.03;88.16;98310.03;5021133;28;20504;-66
2022/01/16 09:11:44;;;;;;;36.38;18.48;;;;;;;-1.94;88.23;98303.84;5022253;28;20053;-66
2022/01/16 09:14:11;;;;;;;40.30;18.10;;;;;;;-1.67;88.02;98314.59;5022528;28;20052;-66
2022/01/16 09:16:37;;;;;;;40.42;19.65;;;;;;;-1.48;87.45;98322.41;5023225;28;20037;-66
2022/01/16 09:19:04;;;;;;;35.13;17.90;;;;;;;-1.42;86.62;98322.78;5038329;28;20471;-66
2022/01/16 09:21:31;;;;;;;36.30;18.60;;;;;;;-1.35;86.97;98323.84;5027726;28;20037;-66
2022/01/16 09:23:57;;;;;;;41.72;18.98;;;;;;;-1.17;86.60;98321.19;5026933;28;20551;-66
2022/01/16 09:26:25;;;;;;;39.28;18.33;;;;;;;-1.07;86.80;98319.28;5026222;28;20048;-65
2022/01/16 09:28:53;;;;;;;36.30;19.35;;;;;;;-0.98;86.44;98328.16;5029129;28;20041;-66
2022/01/16 09:31:20;;;;;;;37.80;18.55;;;;;;;-1.15;87.43;98327.19;5026467;28;20045;-65
2022/01/16 09:33:47;;;;;;;42.78;19.80;;;;;;;-1.16;88.36;98325.50;5024748;28;20571;-65
2022/01/16 09:36:13;;;;;;;41.25;19.80;;;;;;;-1.14;88.65;98328.84;5026196;28;20065;-65
2022/01/16 09:38:40;;;;;;;31.50;15.88;;;;;;;-0.99;88.37;98331.78;5025804;28;20054;-65
2022/01/16 09:41:07;;;;;;;38.63;18.60;;;;;;;-0.90;87.28;98338.00;5025884;28;20045;-65
2022/01/16 09:43:35;;;;;;;36.63;17.65;;;;;;;-0.84;87.16;98340.06;5025953;28;20033;-65
2022/01/16 09:46:02;;;;;;;40.63;19.05;;;;;;;-0.99;87.89;98346.91;5025880;28;20041;-65
2022/01/16 09:48:29;;;;;;;39.33;19.77;;;;;;;-0.91;88.46;98354.97;5026426;28;20041;-66
2022/01/16 09:50:56;;;;;;;42.38;22.58;;;;;;;-1.02;88.44;98360.50;5025393;28;20060;-65
2022/01/16 09:53:24;;;;;;;40.17;20.10;;;;;;;-1.00;88.70;98361.22;5026469;28;20041;-65
2022/01/16 09:55:51;;;;;;;40.90;20.13;;;;;;;-0.90;88.73;98356.63;5026261;28;20045;-66
2022/01/16 09:58:19;;;;;;;44.08;21.38;;;;;;;-0.83;88.44;98355.03;5025912;28;20060;-65
2022/01/16 10:00:47;;;;;;;41.75;19.83;;;;;;;-0.74;88.28;98358.56;5026237;28;20054;-66
2022/01/16 10:03:49;;;;;;;35.55;18.10;;;;;;;-0.72;87.86;98353.94;5025013;28;20374;-65
2022/01/16 10:06:22;;;;;;;40.03;19.73;;;;;;;-0.51;87.34;98344.78;5024074;28;20576;-65
2022/01/16 10:08:51;;;;;;;38.53;18.52;;;;;;;-0.41;86.89;98350.81;5022862;28;20045;-65
2022/01/16 10:11:22;;;;;;;27.42;13.43;;;;;;;-0.35;86.71;98352.03;5024077;28;20055;-65
2022/01/16 10:13:57;;;;;;;;;;;;;;;-0.25;86.76;98353.75;5018058;28;20517;-65
2022/01/16 10:16:29;;;;;;;39.58;17.45;;;;;;;-0.31;86.13;98360.53;5023219;28;19925;-65
2022/01/16 10:18:57;;;;;;;29.00;14.95;;;;;;;-0.53;87.31;98373.34;5023114;28;20049;-65
2022/01/16 10:21:35;;;;;;;40.17;21.42;;;;;;;-0.58;87.76;98367.69;5021242;28;20115;-65
2022/01/16 10:24:16;;;;;;;39.28;17.67;;;;;;;-0.40;87.50;98365.78;5021646;28;20041;-66
2022/01/16 10:26:44;;;;;;;35.55;17.33;;;;;;;-0.41;86.83;98361.47;5023751;28;20062;-65
2022/01/16 10:29:16;;;;;;;27.10;14.82;;;;;;;-0.35;86.73;98349.38;5022715;28;20071;-66
2022/01/16 10:31:43;;;;;;;32.53;16.63;;;;;;;-0.23;86.43;98360.56;5022240;28;20045;-66
2022/01/16 10:34:27;;;;;;;34.03;18.10;;;;;;;-0.15;87.18;98355.28;5020570;28;20042;-65
2022/01/16 10:36:54;;;;;;;35.47;17.17;;;;;;;-0.07;86.16;98362.47;5022573;28;20076;-65
2022/01/16 10:39:21;;;;;;;35.65;17.42;;;;;;;-0.27;87.13;98368.03;5023649;28;20717;-66
2022/01/16 10:42:15;;;;;;;41.38;17.38;;;;;;;-0.15;86.52;98360.63;5023278;28;20064;-66
2022/01/16 10:44:42;;;;;;;33.10;17.45;;;;;;;-0.04;85.66;98375.47;5021939;28;20058;-66
2022/01/16 10:47:32;;;;;;;33.72;16.83;;;;;;;-0.01;86.21;98377.84;5024940;28;20702;-66
2022/01/16 10:50:13;;;;;;;40.00;22.20;;;;;;;-0.11;86.51;98392.25;5023533;28;20046;-66
2022/01/16 10:52:51;;;;;;;31.90;15.60;;;;;;;-0.15;86.30;98395.22;5023204;28;20042;-66
2022/01/16 10:55:19;;;;;;;31.52;14.93;;;;;;;0.09;86.00;98396.38;5023712;28;20632;-66
2022/01/16 10:57:47;;;;;;;29.15;13.65;;;;;;;0.28;84.07;98397.09;5023088;28;20045;-65
2022/01/16 11:00:20;;;;;;;31.55;15.68;;;;;;;0.08;85.00;98389.34;5022485;28;20052;-65
2022/01/16 11:02:49;;;;;;;34.60;17.60;;;;;;;-0.08;85.73;98395.44;5023058;28;20038;-66
2022/01/16 11:05:22;;;;;;;34.08;16.88;;;;;;;-0.17;85.95;98405.22;5019503;28;20060;-65
2022/01/16 11:08:06;;;;;;;30.48;15.25;;;;;;;-0.32;87.20;98407.63;5023062;28;20055;-65
2022/01/16 11:10:35;;;;;;;32.70;17.52;;;;;;;-0.22;87.23;98401.34;5022392;28;20056;-66
2022/01/16 11:13:05;;;;;;;37.13;17.35;;;;;;;-0.16;86.54;98398.03;5021029;28;20037;-66
2022/01/16 11:15:34;;;;;;;24.42;12.45;;;;;;;-0.17;86.30;98412.34;5021309;28;20111;-66
2022/01/16 11:18:02;;;;;;;34.92;17.02;;;;;;;-0.21;85.65;98403.00;5020829;28;20049;-66
2022/01/16 11:20:33;;;;;;;37.35;16.73;;;;;;;-0.24;86.43;98395.31;5021373;28;20567;-66
2022/01/16 11:23:05;;;;;;;26.83;15.25;;;;;;;-0.18;85.73;98406.19;5021735;28;20050;-65
2022/01/16 11:25:36;;;;;;;;;;;;;;;-0.30;87.00;98415.41;5023613;28;20614;-66
2022/01/16 11:28:08;;;;;;;29.17;14.82;;;;;;;-0.34;86.96;98420.22;5020301;28;19939;-66
2022/01/16 11:30:36;;;;;;;;;;;;;;;-0.38;86.92;98413.53;5019645;28;20049;-66
2022/01/16 11:33:03;;;;;;;26.33;13.90;;;;;;;-0.38;87.45;98424.19;5021833;28;20454;-66
2022/01/16 11:35:33;;;;;;;43.38;18.33;;;;;;;-0.58;88.03;98426.19;5021518;28;20714;-66
2022/01/16 11:38:00;;;;;;;31.40;16.95;;;;;;;-0.54;87.48;98432.88;5022152;28;20042;-66
2022/01/16 11:40:47;;;;;;;41.88;21.17;;;;;;;-0.70;88.38;98438.91;5020913;28;20049;-65
2022/01/16 11:43:14;;;;;;;41.78;20.33;;;;;;;-0.88;89.22;98434.44;5019612;28;20041;-66
2022/01/16 11:45:55;;;;;;;28.67;13.73;;;;;;;-0.80;88.50;98444.31;5013520;28;20046;-64
2022/01/16 11:48:42;;;;;;;40.03;19.60;;;;;;;-0.77;88.34;98438.69;5020388;28;20037;-63
2022/01/16 11:51:33;;;;;;;33.65;14.43;;;;;;;-0.74;88.01;98430.38;5010373;28;20356;-65
2022/01/16 11:54:06;;;;;;;39.30;17.23;;;;;;;-0.79;88.34;98436.19;5018213;28;20037;-64
2022/01/16 11:56:42;;;;;;;29.05;14.82;;;;;;;-0.69;87.91;98429.94;5022491;28;20673;-66
2022/01/16 11:59:22;;;;;;;39.75;19.33;;;;;;;-0.77;88.52;98425.41;5020845;28;20044;-63
2022/01/16 12:01:56;;;;;;;34.85;15.07;;;;;;;-0.54;87.62;98436.41;5016872;28;20520;-64
2022/01/16 12:04:29;;;;;;;28.40;13.55;;;;;;;-0.38;87.06;98434.00;5012994;28;20053;-63
2022/01/16 12:07:02;;;;;;;29.48;13.73;;;;;;;-0.42;87.06;98433.47;5016683;28;20052;-68
2022/01/16 12:09:40;;;;;;;24.33;12.02;;;;;;;-0.41;87.16;98424.50;5023230;28;20049;-63